Time;durP1;ratioP1;P1;durP2;ratioP2;P2;SDS_P1;SDS_P2;PMS_P1;PMS_P2;Temp;Humidity;BMP_temperature;BMP_pressure;BME280_temperature;BME280_humidity;BME280_pressure;Samples;Min_cycle;Max_cycle;Signal;HPM_P1;HPM_P2
2022/01/18 00:01:47;;;;;;;1.50;0.73;;;;;;;;;;4510383;28;20036;-61
2022/01/18 00:03:57;;;;;;;3.10;1.05;;;;;;;;;;4518984;28;20619;-62
2022/01/18 00:06:08;;;;;;;2.13;0.83;;;;;;;;;;4512051;28;20022;-62
2022/01/18 00:08:20;;;;;;;2.60;1.10;;;;;;;;;;4535984;28;20040;-63
2022/01/18 00:10:32;;;;;;;2.83;0.93;;;;;;;;;;4511493;28;20059;-62
2022/01/18 00:13:08;;;;;;;4.35;0.80;;;;;;;;;;4511543;28;20121;-62
2022/01/18 00:15:30;;;;;;;2.22;0.70;;;;;;;;;;4511231;28;20038;-62
2022/01/18 00:17:51;;;;;;;2.40;0.90;;;;;;;;;;4512000;28;20580;-61
2022/01/18 00:20:01;;;;;;;3.50;1.02;;;;;;;;;;4512004;28;20164;-62
2022/01/18 00:22:13;;;;;;;3.40;1.02;;;;;;;;;;4511023;28;20018;-62
2022/01/18 00:24:24;;;;;;;3.63;1.00;;;;;;;;;;4511844;28;20069;-62
2022/01/18 00:26:34;;;;;;;2.57;0.90;;;;;;;;;;4510079;28;20607;-62
2022/01/18 00:28:50;;;;;;;1.73;1.00;;;;;;;;;;4510168;28;20116;-61
2022/01/18 00:34:11;;;;;;;2.65;0.85;;;;;;;;;;4518030;28;20025;-62
2022/01/18 00:36:02;;;;;;;2.42;0.80;;;;;;;;;;4508585;28;20200;-62
2022/01/18 00:38:31;;;;;;;2.75;1.00;;;;;;;;;;4511136;28;20022;-62
2022/01/18 00:40:41;;;;;;;3.15;0.80;;;;;;;;;;4527641;28;20072;-62
2022/01/18 00:42:52;;;;;;;3.60;1.20;;;;;;;;;;4509589;28;20034;-62
2022/01/18 00:45:02;;;;;;;3.33;1.10;;;;;;;;;;4511179;28;25885;-62
2022/01/18 00:47:13;;;;;;;2.50;0.93;;;;;;;;;;4510742;28;20034;-62
2022/01/18 00:49:23;;;;;;;1.83;0.80;;;;;;;;;;4510190;28;20470;-62
2022/01/18 00:51:38;;;;;;;3.50;1.00;;;;;;;;;;4508185;28;20061;-62
2022/01/18 00:53:48;;;;;;;2.83;0.85;;;;;;;;;;4508213;28;20026;-62
2022/01/18 00:58:21;;;;;;;4.30;1.10;;;;;;;;;;4515629;28;20056;-62
2022/01/18 01:00:32;;;;;;;3.53;0.83;;;;;;;;;;4509291;28;20084;-62
2022/01/18 01:02:42;;;;;;;3.67;1.07;;;;;;;;;;4509758;28;20064;-62
2022/01/18 01:04:53;;;;;;;1.63;0.73;;;;;;;;;;4510975;28;28169;-62
2022/01/18 01:07:03;;;;;;;2.63;0.77;;;;;;;;;;4510252;28;20092;-62
2022/01/18 01:09:14;;;;;;;2.27;0.87;;;;;;;;;;4512506;28;20072;-62
2022/01/18 01:11:25;;;;;;;2.90;0.80;;;;;;;;;;4509373;28;20091;-62
2022/01/18 01:13:38;;;;;;;2.53;0.80;;;;;;;;;;4507275;28;20157;-61
2022/01/18 01:18:32;;;;;;;1.50;0.57;;;;;;;;;;4509969;28;20133;-62
2022/01/18 01:34:06;;;;;;;3.10;0.70;;;;;;;;;;4511558;28;20052;-62
2022/01/18 01:43:21;;;;;;;1.98;0.68;;;;;;;;;;4537015;28;20135;-63
2022/01/18 01:45:34;;;;;;;2.35;0.82;;;;;;;;;;4510646;28;20104;-62
2022/01/18 01:47:49;;;;;;;3.17;0.90;;;;;;;;;;4508719;28;20034;-62
2022/01/18 01:50:01;;;;;;;2.58;0.82;;;;;;;;;;4508836;28;20029;-62
2022/01/18 01:52:11;;;;;;;;;;;;;;;;;;4508553;28;20022;-61
2022/01/18 01:54:22;;;;;;;2.30;0.60;;;;;;;;;;4509302;28;19909;-62
2022/01/18 01:56:33;;;;;;;2.83;0.90;;;;;;;;;;4509833;28;23236;-62
2022/01/18 01:58:43;;;;;;;2.63;0.80;;;;;;;;;;4542934;28;20564;-62
2022/01/18 02:00:57;;;;;;;2.03;0.70;;;;;;;;;;4539711;28;29879;-62
2022/01/18 02:03:08;;;;;;;2.60;0.80;;;;;;;;;;4507436;28;20133;-62
2022/01/18 02:05:20;;;;;;;1.93;0.70;;;;;;;;;;4507298;28;20029;-62
2022/01/18 02:07:30;;;;;;;2.75;0.70;;;;;;;;;;4541332;28;20052;-62
2022/01/18 02:09:41;;;;;;;1.20;0.57;;;;;;;;;;4507298;28;30370;-62
2022/01/18 02:11:55;;;;;;;2.13;0.67;;;;;;;;;;4525157;28;22429;-62
2022/01/18 02:14:07;;;;;;;1.42;0.75;;;;;;;;;;4508654;28;21971;-62
2022/01/18 02:21:46;;;;;;;1.67;0.80;;;;;;;;;;4510590;28;20034;-62
2022/01/18 02:23:47;;;;;;;2.05;0.77;;;;;;;;;;4509802;28;20042;-62
2022/01/18 02:25:58;;;;;;;3.23;0.90;;;;;;;;;;4510457;28;32862;-62
2022/01/18 02:28:09;;;;;;;2.47;0.80;;;;;;;;;;4534529;28;20108;-62
2022/01/18 02:30:19;;;;;;;2.70;0.90;;;;;;;;;;4510412;28;20026;-62
2022/01/18 02:32:29;;;;;;;2.77;1.00;;;;;;;;;;4508155;28;20034;-62
2022/01/18 02:34:40;;;;;;;3.57;0.93;;;;;;;;;;4507445;28;23541;-62
2022/01/18 02:36:53;;;;;;;2.63;0.87;;;;;;;;;;4508761;28;20039;-62
2022/01/18 02:39:04;;;;;;;2.42;0.82;;;;;;;;;;4498362;28;20024;-62
2022/01/18 02:41:28;;;;;;;;;;;;;;;;;;4541888;28;20646;-62
2022/01/18 02:43:48;;;;;;;3.90;1.00;;;;;;;;;;4508879;28;19923;-62
2022/01/18 02:45:58;;;;;;;2.70;1.05;;;;;;;;;;4508223;28;20539;-62
2022/01/18 02:48:09;;;;;;;2.87;1.10;;;;;;;;;;4509099;28;20022;-62
2022/01/18 02:50:23;;;;;;;3.58;1.27;;;;;;;;;;4509289;28;20124;-62
2022/01/18 02:52:33;;;;;;;3.35;1.08;;;;;;;;;;4508724;28;20199;-62
2022/01/18 02:54:44;;;;;;;4.73;1.40;;;;;;;;;;4508950;28;21369;-62
2022/01/18 02:57:00;;;;;;;2.83;1.10;;;;;;;;;;4509274;28;20491;-63
2022/01/18 02:59:24;;;;;;;1.75;0.93;;;;;;;;;;4513687;28;20580;-62
2022/01/18 03:04:03;;;;;;;3.47;1.35;;;;;;;;;;4508719;28;20038;-62
2022/01/18 03:06:14;;;;;;;2.40;1.10;;;;;;;;;;4506273;28;20026;-62
2022/01/18 03:08:24;;;;;;;4.70;1.20;;;;;;;;;;4540088;28;20058;-62
2022/01/18 03:10:35;;;;;;;4.83;1.63;;;;;;;;;;4528309;28;20021;-62
2022/01/18 03:12:46;;;;;;;2.57;1.20;;;;;;;;;;4509485;28;20108;-62
2022/01/18 03:14:56;;;;;;;5.05;1.50;;;;;;;;;;4540287;28;20295;-63
2022/01/18 03:17:07;;;;;;;4.53;1.13;;;;;;;;;;4539071;28;20029;-62
2022/01/18 03:19:18;;;;;;;3.53;1.23;;;;;;;;;;4508650;28;20054;-62
2022/01/18 03:21:28;;;;;;;3.20;1.10;;;;;;;;;;4508527;28;20633;-62
2022/01/18 03:23:38;;;;;;;3.53;1.30;;;;;;;;;;4540690;28;20700;-62
2022/01/18 03:25:55;;;;;;;3.30;1.00;;;;;;;;;;4509634;28;20024;-62
2022/01/18 03:28:07;;;;;;;4.55;1.40;;;;;;;;;;4508478;28;20528;-62
2022/01/18 03:30:17;;;;;;;;;;;;;;;;;;4539573;28;20156;-62
2022/01/18 03:32:28;;;;;;;2.58;1.13;;;;;;;;;;4507856;28;19909;-64
2022/01/18 03:34:38;;;;;;;3.87;1.07;;;;;;;;;;4508010;28;20038;-62
2022/01/18 03:36:49;;;;;;;5.17;1.40;;;;;;;;;;4506283;28;20466;-62
2022/01/18 03:38:59;;;;;;;3.77;1.20;;;;;;;;;;4495605;28;20030;-62
2022/01/18 03:41:10;;;;;;;3.87;1.30;;;;;;;;;;4509318;28;20029;-62
2022/01/18 03:43:20;;;;;;;4.77;1.57;;;;;;;;;;4507741;28;20434;-62
2022/01/18 03:45:39;;;;;;;3.73;1.17;;;;;;;;;;4508184;28;23904;-62
2022/01/18 03:47:49;;;;;;;3.63;1.15;;;;;;;;;;4507808;28;20017;-62
2022/01/18 03:50:01;;;;;;;3.27;1.20;;;;;;;;;;4509357;28;20478;-62
2022/01/18 03:52:11;;;;;;;;;;;;;;;;;;4508339;28;20022;-62
2022/01/18 03:54:23;;;;;;;2.65;1.20;;;;;;;;;;4509049;28;19909;-63
2022/01/18 03:56:34;;;;;;;3.88;1.40;;;;;;;;;;4513582;28;20079;-62
2022/01/18 03:58:45;;;;;;;3.37;1.10;;;;;;;;;;4516867;28;20036;-62
2022/01/18 04:00:55;;;;;;;3.07;1.13;;;;;;;;;;4506751;28;20930;-63
2022/01/18 04:03:05;;;;;;;3.20;1.17;;;;;;;;;;4508420;28;20133;-62
2022/01/18 04:05:16;;;;;;;4.27;1.40;;;;;;;;;;4540884;28;20049;-62
2022/01/18 04:07:27;;;;;;;3.63;1.27;;;;;;;;;;4516898;28;20026;-62
2022/01/18 04:09:37;;;;;;;4.27;1.47;;;;;;;;;;4507202;28;20304;-62
2022/01/18 04:11:48;;;;;;;4.53;1.50;;;;;;;;;;4509038;28;20029;-63
2022/01/18 04:13:58;;;;;;;3.73;1.60;;;;;;;;;;4507850;28;30514;-62
2022/01/18 04:16:08;;;;;;;5.00;1.63;;;;;;;;;;4508776;28;20038;-62
2022/01/18 04:18:35;;;;;;;4.37;1.60;;;;;;;;;;4509867;28;20080;-62
2022/01/18 04:28:12;;;;;;;3.63;1.52;;;;;;;;;;4540824;28;20220;-62
2022/01/18 04:30:23;;;;;;;4.03;1.70;;;;;;;;;;4511318;28;20026;-62
2022/01/18 04:32:33;;;;;;;3.47;1.50;;;;;;;;;;4509051;28;20034;-62
2022/01/18 04:34:44;;;;;;;3.67;1.77;;;;;;;;;;4527223;28;20033;-62
2022/01/18 04:36:54;;;;;;;6.27;2.03;;;;;;;;;;4543838;28;20079;-63
2022/01/18 04:39:04;;;;;;;4.80;1.87;;;;;;;;;;4541438;28;36228;-63
2022/01/18 04:41:18;;;;;;;5.60;1.90;;;;;;;;;;4511828;28;22647;-62
2022/01/18 04:48:34;;;;;;;3.45;1.42;;;;;;;;;;4511326;28;20113;-62
2022/01/18 04:50:44;;;;;;;3.70;1.60;;;;;;;;;;4518872;28;20010;-63
2022/01/18 04:52:55;;;;;;;3.63;1.73;;;;;;;;;;4510312;28;20030;-62
2022/01/18 04:55:06;;;;;;;3.13;1.30;;;;;;;;;;4509636;28;20034;-62
2022/01/18 04:59:27;;;;;;;4.07;1.43;;;;;;;;;;4511448;28;20435;-64
2022/01/18 05:01:41;;;;;;;3.80;1.60;;;;;;;;;;4512618;28;20391;-62
2022/01/18 05:03:51;;;;;;;3.70;1.52;;;;;;;;;;4541476;28;20037;-63
2022/01/18 05:06:08;;;;;;;3.07;1.40;;;;;;;;;;4527594;28;20032;-63
2022/01/18 05:08:19;;;;;;;3.22;1.45;;;;;;;;;;4508142;28;20053;-62
2022/01/18 05:10:30;;;;;;;4.07;1.83;;;;;;;;;;4508750;28;20138;-62
2022/01/18 05:12:46;;;;;;;4.47;1.90;;;;;;;;;;4510683;28;20648;-62
2022/01/18 05:14:56;;;;;;;4.90;1.67;;;;;;;;;;4511052;28;20069;-62
2022/01/18 05:20:37;;;;;;;3.78;1.45;;;;;;;;;;4497620;28;20042;-62
2022/01/18 05:24:46;;;;;;;5.95;2.05;;;;;;;;;;4524246;28;20049;-63
2022/01/18 05:26:58;;;;;;;3.80;1.70;;;;;;;;;;4508733;28;38540;-62
2022/01/18 05:29:09;;;;;;;4.35;1.92;;;;;;;;;;4543890;28;20017;-62
2022/01/18 05:31:19;;;;;;;4.27;1.70;;;;;;;;;;4510320;28;20030;-62
2022/01/18 05:33:30;;;;;;;3.40;1.63;;;;;;;;;;4510528;28;23032;-62
2022/01/18 05:35:40;;;;;;;2.60;1.40;;;;;;;;;;4542717;28;20032;-62
2022/01/18 05:37:51;;;;;;;4.37;1.90;;;;;;;;;;4509802;28;20025;-62
2022/01/18 05:40:01;;;;;;;4.30;1.67;;;;;;;;;;4509878;28;20030;-61
2022/01/18 05:42:13;;;;;;;3.03;1.63;;;;;;;;;;4543808;28;20064;-62
2022/01/18 05:44:25;;;;;;;3.47;1.60;;;;;;;;;;4508667;28;20058;-62
2022/01/18 05:46:35;;;;;;;5.43;1.80;;;;;;;;;;4509757;28;20026;-63
2022/01/18 05:48:46;;;;;;;5.13;1.73;;;;;;;;;;4515644;28;20476;-62
2022/01/18 05:51:02;;;;;;;4.93;2.03;;;;;;;;;;4509092;28;20025;-62
2022/01/18 05:53:12;;;;;;;4.78;1.63;;;;;;;;;;4509350;28;20580;-62
2022/01/18 05:55:23;;;;;;;4.70;1.83;;;;;;;;;;4541318;28;30000;-62
2022/01/18 05:57:33;;;;;;;5.13;2.07;;;;;;;;;;4542483;28;20059;-62
2022/01/18 05:59:46;;;;;;;2.93;1.73;;;;;;;;;;4509314;28;23887;-62
2022/01/18 06:02:02;;;;;;;4.95;2.00;;;;;;;;;;4509060;28;20030;-62
2022/01/18 06:06:50;;;;;;;5.32;2.00;;;;;;;;;;4509316;28;20048;-62
2022/01/18 06:06:53;;;;;;;4.60;1.83;;;;;;;;;;4536422;28;20034;-62
2022/01/18 06:09:04;;;;;;;5.15;1.80;;;;;;;;;;4508082;28;20025;-62
2022/01/18 06:11:14;;;;;;;4.07;1.50;;;;;;;;;;4508481;28;20034;-62
2022/01/18 06:13:24;;;;;;;6.10;2.23;;;;;;;;;;4540818;28;20144;-62
2022/01/18 06:15:35;;;;;;;4.80;1.70;;;;;;;;;;4509202;28;20489;-62
2022/01/18 06:17:46;;;;;;;5.37;2.17;;;;;;;;;;4510893;28;20014;-62
2022/01/18 06:19:56;;;;;;;6.43;2.40;;;;;;;;;;4511160;28;20045;-62
2022/01/18 06:22:07;;;;;;;5.73;2.17;;;;;;;;;;4509067;28;22821;-62
2022/01/18 06:24:17;;;;;;;5.60;2.30;;;;;;;;;;4507941;28;20453;-62
2022/01/18 06:26:27;;;;;;;4.63;2.20;;;;;;;;;;4509112;28;20026;-62
2022/01/18 06:28:38;;;;;;;5.87;2.10;;;;;;;;;;4509494;28;20281;-62
2022/01/18 06:30:48;;;;;;;7.87;2.50;;;;;;;;;;4508912;28;20030;-62
2022/01/18 06:32:59;;;;;;;8.83;2.70;;;;;;;;;;4507599;28;20037;-62
2022/01/18 06:35:10;;;;;;;5.70;2.20;;;;;;;;;;4541854;28;20028;-62
2022/01/18 06:37:20;;;;;;;7.00;2.33;;;;;;;;;;4514493;28;20735;-62
2022/01/18 06:39:31;;;;;;;6.17;2.37;;;;;;;;;;4509751;28;21072;-62
2022/01/18 06:41:41;;;;;;;9.03;2.70;;;;;;;;;;4509176;28;20096;-62
2022/01/18 06:43:52;;;;;;;6.87;2.50;;;;;;;;;;4508555;28;20041;-62
2022/01/18 06:46:02;;;;;;;6.00;2.30;;;;;;;;;;4506760;28;34787;-62
2022/01/18 06:48:13;;;;;;;7.43;2.33;;;;;;;;;;4506774;28;20034;-62
2022/01/18 06:50:23;;;;;;;6.27;2.40;;;;;;;;;;4508550;28;20506;-62
2022/01/18 06:52:34;;;;;;;8.40;2.47;;;;;;;;;;4509263;28;20048;-62
2022/01/18 06:54:44;;;;;;;7.10;2.43;;;;;;;;;;4509654;28;20078;-62
2022/01/18 06:56:55;;;;;;;5.50;2.10;;;;;;;;;;4508673;28;20030;-62
2022/01/18 06:59:07;;;;;;;7.40;2.67;;;;;;;;;;4507734;28;20101;-62
2022/01/18 07:01:18;;;;;;;5.65;2.20;;;;;;;;;;4507999;28;20033;-62
2022/01/18 07:03:28;;;;;;;7.03;2.60;;;;;;;;;;4508118;28;20040;-62
2022/01/18 07:05:39;;;;;;;5.20;2.23;;;;;;;;;;4509281;28;20048;-62
2022/01/18 07:07:50;;;;;;;7.30;2.50;;;;;;;;;;4509508;28;20382;-62
2022/01/18 07:10:00;;;;;;;6.37;2.40;;;;;;;;;;4508347;28;20305;-63
2022/01/18 07:12:12;;;;;;;6.53;2.50;;;;;;;;;;4510117;28;20085;-62
2022/01/18 07:14:23;;;;;;;8.85;3.03;;;;;;;;;;4516678;28;20052;-62
2022/01/18 07:16:34;;;;;;;8.35;2.97;;;;;;;;;;4508214;28;20030;-62
2022/01/18 07:18:44;;;;;;;6.43;2.50;;;;;;;;;;4507903;28;20033;-62
2022/01/18 07:20:55;;;;;;;6.63;2.53;;;;;;;;;;4522721;28;20025;-63
2022/01/18 07:23:11;;;;;;;7.70;2.70;;;;;;;;;;4508320;28;20125;-62
2022/01/18 07:25:25;;;;;;;8.60;3.05;;;;;;;;;;4508101;28;20040;-62
2022/01/18 07:27:35;;;;;;;6.57;2.40;;;;;;;;;;4508250;28;20035;-62
2022/01/18 07:29:45;;;;;;;7.67;2.70;;;;;;;;;;4507908;28;20053;-62
2022/01/18 07:31:56;;;;;;;7.07;2.70;;;;;;;;;;4508759;28;21095;-62
2022/01/18 07:34:06;;;;;;;9.30;3.10;;;;;;;;;;4507558;28;20027;-62
2022/01/18 07:36:17;;;;;;;7.27;2.90;;;;;;;;;;4507492;28;20033;-62
2022/01/18 07:38:27;;;;;;;5.23;2.20;;;;;;;;;;4506125;28;20675;-62
2022/01/18 07:40:39;;;;;;;7.80;2.60;;;;;;;;;;4508614;28;20018;-62
2022/01/18 07:42:49;;;;;;;7.32;2.42;;;;;;;;;;4507932;28;20711;-62
2022/01/18 07:45:00;;;;;;;7.07;2.20;;;;;;;;;;4509342;28;20968;-62
2022/01/18 07:47:10;;;;;;;7.60;2.50;;;;;;;;;;4541196;28;20033;-62
2022/01/18 07:49:21;;;;;;;9.37;2.83;;;;;;;;;;4539833;28;20029;-62
2022/01/18 07:51:31;;;;;;;6.57;2.43;;;;;;;;;;4508407;28;20034;-62
2022/01/18 07:53:42;;;;;;;9.60;3.03;;;;;;;;;;4508399;28;20030;-62
2022/01/18 07:55:53;;;;;;;6.55;2.40;;;;;;;;;;4538494;28;20137;-62
2022/01/18 07:58:03;;;;;;;6.53;2.27;;;;;;;;;;4505452;28;20026;-62
2022/01/18 08:00:16;;;;;;;8.93;2.63;;;;;;;;;;4506366;28;20659;-62
2022/01/18 08:02:27;;;;;;;5.75;2.40;;;;;;;;;;4507041;28;20030;-62
2022/01/18 08:04:38;;;;;;;8.20;2.67;;;;;;;;;;4541818;28;20045;-62
2022/01/18 08:06:48;;;;;;;8.43;2.53;;;;;;;;;;4510498;28;20132;-62
2022/01/18 08:08:59;;;;;;;5.83;2.27;;;;;;;;;;4510675;28;20048;-62
2022/01/18 08:11:09;;;;;;;8.17;2.80;;;;;;;;;;4511973;28;20038;-62
2022/01/18 08:13:26;;;;;;;7.70;2.50;;;;;;;;;;4543104;28;20021;-62
2022/01/18 08:15:38;;;;;;;6.60;2.30;;;;;;;;;;4510272;28;20089;-62
2022/01/18 08:17:49;;;;;;;7.47;2.28;;;;;;;;;;4511020;28;20030;-61
2022/01/18 08:20:00;;;;;;;6.88;2.40;;;;;;;;;;4518497;28;20036;-62
2022/01/18 08:22:11;;;;;;;5.43;2.47;;;;;;;;;;4541360;28;20477;-62
2022/01/18 08:24:21;;;;;;;7.97;2.30;;;;;;;;;;4518544;28;20838;-62
2022/01/18 08:26:32;;;;;;;7.50;3.00;;;;;;;;;;4514395;28;20573;-62
2022/01/18 08:28:43;;;;;;;6.87;2.53;;;;;;;;;;4509947;28;21133;-62
2022/01/18 08:30:53;;;;;;;8.40;2.43;;;;;;;;;;4510494;28;20021;-62
2022/01/18 08:33:03;;;;;;;7.43;2.33;;;;;;;;;;4541925;28;20059;-62
2022/01/18 08:35:15;;;;;;;5.80;2.40;;;;;;;;;;4509974;28;20030;-62
2022/01/18 08:37:25;;;;;;;8.27;3.40;;;;;;;;;;4509350;28;20057;-62
2022/01/18 08:39:35;;;;;;;17.30;8.07;;;;;;;;;;4510214;28;20148;-62
2022/01/18 08:41:46;;;;;;;15.30;10.63;;;;;;;;;;4541054;28;20059;-62
2022/01/18 08:43:57;;;;;;;17.27;11.57;;;;;;;;;;4509590;28;20045;-62
2022/01/18 08:46:08;;;;;;;18.80;10.37;;;;;;;;;;4508760;28;20442;-62
2022/01/18 08:48:19;;;;;;;17.00;12.05;;;;;;;;;;4508718;28;20653;-62
2022/01/18 08:50:31;;;;;;;14.93;10.93;;;;;;;;;;4510772;28;20028;-62
2022/01/18 08:52:41;;;;;;;10.18;5.15;;;;;;;;;;4510998;28;20030;-62
2022/01/18 08:54:52;;;;;;;15.47;11.13;;;;;;;;;;4507976;28;20555;-62
2022/01/18 08:57:03;;;;;;;15.60;11.93;;;;;;;;;;4510149;28;20029;-62
2022/01/18 08:59:13;;;;;;;17.48;11.27;;;;;;;;;;4510108;28;20057;-62
2022/01/18 09:01:24;;;;;;;14.57;11.10;;;;;;;;;;4508536;28;20441;-62
2022/01/18 09:03:34;;;;;;;16.27;11.10;;;;;;;;;;4508913;28;20076;-63
2022/01/18 09:05:45;;;;;;;16.27;11.23;;;;;;;;;;4509368;28;20084;-61
2022/01/18 09:07:59;;;;;;;6.30;4.20;;;;;;;;;;4509030;28;20030;-62
2022/01/18 09:10:11;;;;;;;8.55;2.78;;;;;;;;;;4509063;28;20030;-63
2022/01/18 09:12:22;;;;;;;7.53;2.42;;;;;;;;;;4509896;28;20017;-62
2022/01/18 09:14:32;;;;;;;6.03;2.27;;;;;;;;;;4511067;28;20755;-62
2022/01/18 09:16:43;;;;;;;6.63;2.50;;;;;;;;;;4509883;28;20034;-62
2022/01/18 09:18:53;;;;;;;6.60;2.07;;;;;;;;;;4508846;28;20033;-62
2022/01/18 09:21:04;;;;;;;8.53;2.70;;;;;;;;;;4508113;28;20482;-63
2022/01/18 09:23:15;;;;;;;6.73;2.27;;;;;;;;;;4507710;28;20475;-63
2022/01/18 09:25:27;;;;;;;6.93;2.20;;;;;;;;;;4509326;28;20757;-62
2022/01/18 09:27:37;;;;;;;7.53;2.40;;;;;;;;;;4509827;28;20056;-63
2022/01/18 09:29:48;;;;;;;7.73;2.50;;;;;;;;;;4509311;28;20057;-62
2022/01/18 09:31:58;;;;;;;6.63;2.47;;;;;;;;;;4509319;28;24062;-62
2022/01/18 09:34:09;;;;;;;4.73;2.10;;;;;;;;;;4508843;28;20754;-63
2022/01/18 09:36:19;;;;;;;7.47;2.13;;;;;;;;;;4506641;28;20026;-61
2022/01/18 09:38:30;;;;;;;7.50;2.90;;;;;;;;;;4508916;28;20117;-61
2022/01/18 09:40:43;;;;;;;9.10;2.80;;;;;;;;;;4514283;28;20116;-62
2022/01/18 09:42:57;;;;;;;8.20;2.60;;;;;;;;;;4516212;28;20038;-62
2022/01/18 09:45:12;;;;;;;8.60;2.63;;;;;;;;;;4541540;28;20036;-62
2022/01/18 09:47:23;;;;;;;6.68;2.80;;;;;;;;;;4516642;28;20041;-62
2022/01/18 09:49:33;;;;;;;7.45;1.95;;;;;;;;;;4508537;28;20068;-62
2022/01/18 09:51:44;;;;;;;7.60;2.43;;;;;;;;;;4507211;28;21012;-62
2022/01/18 09:53:55;;;;;;;8.65;2.72;;;;;;;;;;4541627;28;20013;-62
2022/01/18 09:56:05;;;;;;;6.40;2.47;;;;;;;;;;4506121;28;20647;-63
2022/01/18 09:58:16;;;;;;;6.53;2.10;;;;;;;;;;4506819;28;20555;-62
2022/01/18 10:00:30;;;;;;;8.27;2.37;;;;;;;;;;4508782;28;20108;-62
2022/01/18 10:02:42;;;;;;;7.13;2.75;;;;;;;;;;4540589;28;20829;-62
2022/01/18 10:04:54;;;;;;;6.95;2.30;;;;;;;;;;4507115;28;20038;-62
2022/01/18 10:07:04;;;;;;;7.28;2.60;;;;;;;;;;4506764;28;20033;-61
2022/01/18 10:09:18;;;;;;;8.63;2.53;;;;;;;;;;4507636;28;20033;-62
2022/01/18 10:11:28;;;;;;;7.50;2.78;;;;;;;;;;4508041;28;20041;-61
2022/01/18 10:13:38;;;;;;;7.00;2.13;;;;;;;;;;4506194;28;20045;-62
2022/01/18 10:15:58;;;;;;;7.37;2.50;;;;;;;;;;4541754;28;20032;-63
2022/01/18 10:18:09;;;;;;;8.25;2.58;;;;;;;;;;4507712;28;20037;-63
2022/01/18 10:20:20;;;;;;;6.77;2.60;;;;;;;;;;4506806;28;20394;-61
2022/01/18 10:22:40;;;;;;;7.15;2.40;;;;;;;;;;4507737;28;20972;-63
2022/01/18 10:24:52;;;;;;;6.72;2.30;;;;;;;;;;4506590;28;21208;-62
2022/01/18 10:27:03;;;;;;;8.65;2.75;;;;;;;;;;4508552;28;20026;-61
2022/01/18 10:29:15;;;;;;;8.30;2.77;;;;;;;;;;4540018;28;20033;-63
2022/01/18 10:31:28;;;;;;;6.40;2.33;;;;;;;;;;4510961;28;20104;-63
2022/01/18 10:33:47;;;;;;;7.97;2.33;;;;;;;;;;4508297;28;20036;-63
2022/01/18 10:36:12;;;;;;;6.70;2.20;;;;;;;;;;4508439;28;20612;-62
2022/01/18 10:38:22;;;;;;;8.10;2.33;;;;;;;;;;4508519;28;20078;-61
2022/01/18 10:40:33;;;;;;;8.70;2.80;;;;;;;;;;4507249;28;20040;-60
2022/01/18 10:42:48;;;;;;;6.50;2.23;;;;;;;;;;4509302;28;20496;-60
2022/01/18 10:45:29;;;;;;;7.43;2.70;;;;;;;;;;4506044;28;20092;-62
2022/01/18 10:47:57;;;;;;;7.45;2.55;;;;;;;;;;4506264;28;20030;-60
2022/01/18 10:50:13;;;;;;;5.82;2.20;;;;;;;;;;4505818;28;20651;-60
2022/01/18 10:52:28;;;;;;;7.72;2.40;;;;;;;;;;4507789;28;20041;-60
2022/01/18 10:54:44;;;;;;;8.70;2.65;;;;;;;;;;4507792;28;20137;-60
2022/01/18 10:57:02;;;;;;;6.75;2.45;;;;;;;;;;4508594;28;21607;-60
2022/01/18 10:59:23;;;;;;;8.38;2.33;;;;;;;;;;4508327;28;20068;-60
2022/01/18 11:01:33;;;;;;;6.97;2.63;;;;;;;;;;4541826;28;20032;-61
2022/01/18 11:04:06;;;;;;;5.83;2.10;;;;;;;;;;4506089;28;20645;-61
2022/01/18 11:06:17;;;;;;;6.65;2.47;;;;;;;;;;4508735;28;20041;-60
2022/01/18 11:08:27;;;;;;;7.67;2.37;;;;;;;;;;4508932;28;22819;-61
2022/01/18 11:10:40;;;;;;;8.63;2.60;;;;;;;;;;4541120;28;20561;-61
2022/01/18 11:12:56;;;;;;;5.88;2.55;;;;;;;;;;4542481;28;20033;-61
2022/01/18 11:15:08;;;;;;;8.88;2.60;;;;;;;;;;4507791;28;20042;-61
2022/01/18 11:17:24;;;;;;;6.97;2.50;;;;;;;;;;4508959;28;20566;-60
2022/01/18 11:19:37;;;;;;;5.28;2.30;;;;;;;;;;4508302;28;20801;-61
2022/01/18 11:21:50;;;;;;;9.98;3.10;;;;;;;;;;4539237;28;20267;-61
2022/01/18 11:24:00;;;;;;;8.35;2.83;;;;;;;;;;4509183;28;21287;-62
2022/01/18 11:26:11;;;;;;;7.05;2.63;;;;;;;;;;4508032;28;20026;-61
2022/01/18 11:28:21;;;;;;;8.27;2.60;;;;;;;;;;4509692;28;20033;-61
2022/01/18 11:30:35;;;;;;;7.77;2.40;;;;;;;;;;4510049;28;20034;-61
2022/01/18 11:32:46;;;;;;;7.38;2.50;;;;;;;;;;4508848;28;20025;-61
2022/01/18 11:35:19;;;;;;;7.63;2.93;;;;;;;;;;4506119;28;20569;-61
2022/01/18 11:37:45;;;;;;;6.88;2.35;;;;;;;;;;4542911;28;20029;-61
2022/01/18 11:39:58;;;;;;;7.38;2.75;;;;;;;;;;4542609;28;20036;-61
2022/01/18 11:42:13;;;;;;;7.40;2.72;;;;;;;;;;4511068;28;20113;-61
2022/01/18 11:44:27;;;;;;;7.03;2.45;;;;;;;;;;4513188;28;20092;-61
2022/01/18 11:46:43;;;;;;;7.22;2.47;;;;;;;;;;4512053;28;20068;-61
2022/01/18 11:49:00;;;;;;;5.85;2.63;;;;;;;;;;4511710;28;20141;-61
2022/01/18 11:51:17;;;;;;;6.90;2.20;;;;;;;;;;4517642;28;20548;-60
2022/01/18 11:53:45;;;;;;;7.03;2.35;;;;;;;;;;4511582;28;20576;-61
2022/01/18 11:55:57;;;;;;;5.82;2.28;;;;;;;;;;4538203;28;20096;-61
2022/01/18 11:58:12;;;;;;;6.55;2.38;;;;;;;;;;4511017;28;20021;-61
2022/01/18 12:00:24;;;;;;;5.38;2.10;;;;;;;;;;4510900;28;20068;-62
2022/01/18 12:02:40;;;;;;;5.40;1.90;;;;;;;;;;4542268;28;20107;-60
2022/01/18 12:04:54;;;;;;;7.82;2.40;;;;;;;;;;4512453;28;20085;-61
2022/01/18 12:07:05;;;;;;;7.45;2.20;;;;;;;;;;4516579;28;20620;-61
2022/01/18 12:09:38;;;;;;;5.60;2.37;;;;;;;;;;4509498;28;20034;-61
2022/01/18 12:11:48;;;;;;;7.32;2.47;;;;;;;;;;4510643;28;20033;-61
2022/01/18 12:14:00;;;;;;;4.87;2.20;;;;;;;;;;4542319;28;20041;-60
2022/01/18 12:16:18;;;;;;;;;;;;;;;;;;4514313;28;20040;-61
2022/01/18 12:18:31;;;;;;;6.38;2.17;;;;;;;;;;4511747;28;20012;-62
2022/01/18 12:20:46;;;;;;;6.65;2.03;;;;;;;;;;4542932;28;20036;-60
2022/01/18 12:23:03;;;;;;;7.22;2.50;;;;;;;;;;4510978;28;20132;-60
2022/01/18 12:25:31;;;;;;;5.15;2.08;;;;;;;;;;4511274;28;20088;-60
2022/01/18 12:27:42;;;;;;;7.30;2.20;;;;;;;;;;4502196;28;20037;-60
2022/01/18 12:30:40;;;;;;;6.20;2.40;;;;;;;;;;4512652;28;20029;-60
2022/01/18 12:33:16;;;;;;;4.90;1.95;;;;;;;;;;4509853;28;20026;-61
2022/01/18 12:35:28;;;;;;;5.03;2.00;;;;;;;;;;4510008;28;20018;-61
2022/01/18 12:37:41;;;;;;;6.50;2.08;;;;;;;;;;4510346;28;20047;-61
2022/01/18 12:44:20;;;;;;;6.50;2.38;;;;;;;;;;4510443;28;20088;-61
2022/01/18 12:44:44;;;;;;;5.20;1.95;;;;;;;;;;4511782;28;20547;-60
2022/01/18 12:46:57;;;;;;;6.63;2.13;;;;;;;;;;4542547;28;20045;-60
2022/01/18 12:49:08;;;;;;;5.15;2.13;;;;;;;;;;4541445;28;20066;-61
2022/01/18 12:51:19;;;;;;;5.82;2.30;;;;;;;;;;4508689;28;20060;-60
2022/01/18 12:53:36;;;;;;;5.90;2.20;;;;;;;;;;4509541;28;20034;-60
2022/01/18 12:55:48;;;;;;;7.75;2.72;;;;;;;;;;4509721;28;20125;-61
2022/01/18 12:58:10;;;;;;;6.70;2.22;;;;;;;;;;4510066;28;20038;-60
2022/01/18 13:00:20;;;;;;;7.70;2.35;;;;;;;;;;4512582;28;20049;-60
2022/01/18 13:02:31;;;;;;;5.50;2.10;;;;;;;;;;4511254;28;20040;-60
2022/01/18 13:04:55;;;;;;;6.10;2.20;;;;;;;;;;4509570;28;20072;-60
2022/01/18 13:07:05;;;;;;;5.72;2.30;;;;;;;;;;4509338;28;20041;-60
2022/01/18 13:09:16;;;;;;;5.43;2.20;;;;;;;;;;4511615;28;20049;-60
2022/01/18 13:11:31;;;;;;;5.80;2.23;;;;;;;;;;4510957;28;20087;-60
2022/01/18 13:13:49;;;;;;;6.47;2.70;;;;;;;;;;4512654;28;20096;-60
2022/01/18 13:22:54;;;;;;;7.70;2.80;;;;;;;;;;4543062;28;20063;-60
2022/01/18 13:23:55;;;;;;;7.13;3.00;;;;;;;;;;4508995;28;20549;-60
2022/01/18 13:26:06;;;;;;;6.75;2.80;;;;;;;;;;4540395;28;20127;-60
2022/01/18 13:28:17;;;;;;;7.53;2.70;;;;;;;;;;4509659;28;20056;-60
2022/01/18 13:30:29;;;;;;;5.38;2.13;;;;;;;;;;4510246;28;20128;-60
2022/01/18 13:32:42;;;;;;;6.40;2.00;;;;;;;;;;4510730;28;20022;-60
2022/01/18 13:34:56;;;;;;;5.80;2.20;;;;;;;;;;4542096;28;20025;-61
2022/01/18 13:37:08;;;;;;;4.88;2.10;;;;;;;;;;4510342;28;20112;-61
2022/01/18 13:39:27;;;;;;;7.07;2.47;;;;;;;;;;4509800;28;20072;-62
2022/01/18 13:41:38;;;;;;;6.68;2.30;;;;;;;;;;4509222;28;20033;-60
2022/01/18 13:43:49;;;;;;;4.57;2.00;;;;;;;;;;4541374;28;20025;-60
2022/01/18 13:45:59;;;;;;;4.27;1.83;;;;;;;;;;4543805;28;20072;-60
2022/01/18 13:48:12;;;;;;;6.60;2.27;;;;;;;;;;4509714;28;20181;-59
2022/01/18 13:50:27;;;;;;;6.75;2.20;;;;;;;;;;4508245;28;20034;-59
2022/01/18 13:52:37;;;;;;;7.45;2.90;;;;;;;;;;4508944;28;20686;-60
2022/01/18 13:54:51;;;;;;;7.30;2.60;;;;;;;;;;4511421;28;20318;-59
2022/01/18 13:57:05;;;;;;;12.40;6.40;;;;;;;;;;4509947;28;20026;-67
2022/01/18 13:59:16;;;;;;;24.42;15.98;;;;;;;;;;4532223;28;20028;-64
2022/01/18 14:01:28;;;;;;;46.00;28.47;;;;;;;;;;4507589;28;22764;-68
2022/01/18 14:03:41;;;;;;;31.38;17.02;;;;;;;;;;4509337;28;20037;-65
2022/01/18 14:05:52;;;;;;;8.00;3.67;;;;;;;;;;4510328;28;20096;-68
2022/01/18 14:08:06;;;;;;;8.47;2.57;;;;;;;;;;4509772;28;20036;-62
2022/01/18 14:10:21;;;;;;;7.13;2.53;;;;;;;;;;4511435;28;20038;-62
2022/01/18 14:12:33;;;;;;;7.07;2.50;;;;;;;;;;4509372;28;20119;-61
2022/01/18 14:14:43;;;;;;;6.85;2.00;;;;;;;;;;4541637;28;20032;-61
2022/01/18 14:16:55;;;;;;;4.43;1.80;;;;;;;;;;4515696;28;20034;-59
2022/01/18 14:19:08;;;;;;;4.00;1.83;;;;;;;;;;4541023;28;20171;-60
2022/01/18 14:21:47;;;;;;;5.13;2.05;;;;;;;;;;4516495;28;20030;-60